Time;durP1;ratioP1;P1;durP2;ratioP2;P2;SDS_P1;SDS_P2;PMS_P1;PMS_P2;Temp;Humidity;BMP_temperature;BMP_pressure;BME280_temperature;BME280_humidity;BME280_pressure;Samples;Min_cycle;Max_cycle;Signal;HPM_P1;HPM_P2
2023/01/30 00:02:15;;;;;;;11.07;6.75;;;-0.90;98.80;;;;;;5046745;28;20045;-80
2023/01/30 00:04:40;;;;;;;8.75;6.78;;;-0.90;98.80;;;;;;5052490;28;20033;-78
2023/01/30 00:07:06;;;;;;;13.70;6.38;;;-1.00;98.90;;;;;;5052240;28;20021;-80
2023/01/30 00:09:32;;;;;;;12.68;6.85;;;-1.00;99.10;;;;;;5052085;28;20460;-81
2023/01/30 00:11:58;;;;;;;12.60;7.45;;;-0.90;99.10;;;;;;5034364;28;20117;-78
2023/01/30 00:14:24;;;;;;;10.27;6.88;;;-0.90;99.20;;;;;;5052256;28;20074;-79
2023/01/30 00:16:49;;;;;;;12.55;6.90;;;-1.00;99.10;;;;;;5052142;28;20017;-81
2023/01/30 00:19:15;;;;;;;13.02;6.43;;;-1.00;99.10;;;;;;5051974;28;20104;-81
2023/01/30 00:21:41;;;;;;;14.05;7.85;;;-1.00;99.10;;;;;;5051896;28;20464;-79
2023/01/30 00:24:07;;;;;;;13.32;7.07;;;-1.00;99.20;;;;;;5051823;28;20020;-79
2023/01/30 00:26:33;;;;;;;14.93;8.30;;;-1.00;99.10;;;;;;5033387;28;20028;-80
2023/01/30 00:28:59;;;;;;;12.93;7.57;;;-0.90;99.20;;;;;;5046054;28;20391;-80
2023/01/30 00:31:25;;;;;;;16.58;8.05;;;-0.90;99.20;;;;;;5045008;28;20025;-80
2023/01/30 00:33:50;;;;;;;13.15;8.68;;;-0.90;99.20;;;;;;5051844;28;20069;-81
2023/01/30 00:36:16;;;;;;;12.52;8.20;;;-0.80;99.30;;;;;;5051754;28;20021;-81
2023/01/30 00:38:42;;;;;;;14.40;7.63;;;-0.80;99.20;;;;;;5033683;28;20107;-79
2023/01/30 00:41:09;;;;;;;12.98;7.35;;;-0.80;99.10;;;;;;5033652;28;20107;-82
2023/01/30 00:49:16;;;;;;;9.67;6.00;;;-0.80;99.20;;;;;;5041469;28;20175;-81
2023/01/30 00:51:42;;;;;;;9.75;5.75;;;-0.80;99.20;;;;;;5050351;28;20345;-80
2023/01/30 00:54:07;;;;;;;12.00;5.70;;;-0.80;99.00;;;;;;5050825;28;20162;-79
2023/01/30 00:56:33;;;;;;;12.10;6.78;;;-0.90;99.10;;;;;;5051212;28;20081;-79
2023/01/30 00:58:59;;;;;;;11.45;6.28;;;-0.90;99.20;;;;;;5050273;28;20025;-78
2023/01/30 01:01:25;;;;;;;15.18;8.18;;;-0.90;99.30;;;;;;5047459;28;20044;-80
2023/01/30 01:03:51;;;;;;;14.00;8.05;;;-0.90;99.30;;;;;;5051185;28;20460;-80
2023/01/30 01:06:17;;;;;;;12.57;6.53;;;-0.90;99.40;;;;;;5033368;28;20039;-80
2023/01/30 01:08:43;;;;;;;14.75;8.35;;;-0.90;99.30;;;;;;5051088;28;20045;-80
2023/01/30 01:11:08;;;;;;;10.38;7.65;;;-0.90;99.40;;;;;;5032576;28;20381;-80
2023/01/30 01:13:34;;;;;;;14.57;7.65;;;-0.80;99.40;;;;;;5050607;28;20086;-79
2023/01/30 01:16:00;;;;;;;14.07;7.43;;;-0.80;99.30;;;;;;5031935;28;20032;-79
2023/01/30 01:18:26;;;;;;;17.20;9.48;;;-0.90;99.20;;;;;;5033280;28;20093;-79
2023/01/30 01:20:52;;;;;;;13.73;7.60;;;-0.90;99.40;;;;;;5033352;28;20020;-80
2023/01/30 01:23:17;;;;;;;9.65;6.55;;;-0.90;99.30;;;;;;5051273;28;20025;-80
2023/01/30 01:25:44;;;;;;;18.33;9.07;;;-1.00;99.40;;;;;;5051348;28;20029;-80
2023/01/30 01:28:10;;;;;;;17.85;7.80;;;-1.00;99.60;;;;;;5049493;28;20028;-80
2023/01/30 01:30:37;;;;;;;14.50;9.50;;;-0.90;99.70;;;;;;5042701;28;20029;-81
2023/01/30 01:33:03;;;;;;;13.17;8.40;;;-1.00;99.60;;;;;;5033407;28;20400;-78
2023/01/30 01:35:28;;;;;;;13.55;6.50;;;-0.90;99.70;;;;;;5051442;28;20021;-80
2023/01/30 01:37:54;;;;;;;12.73;8.50;;;-0.90;99.70;;;;;;5051892;28;20029;-80
2023/01/30 01:43:22;;;;;;;14.18;8.05;;;-1.00;99.60;;;;;;5018066;28;20477;-80
2023/01/30 01:46:02;;;;;;;16.02;8.82;;;-1.00;99.70;;;;;;5051187;28;20021;-80
2023/01/30 01:48:34;;;;;;;12.13;8.05;;;-1.00;99.80;;;;;;5049036;28;20459;-80
2023/01/30 01:51:12;;;;;;;12.20;7.18;;;-0.90;99.80;;;;;;5045280;28;20808;-79
2023/01/30 01:53:44;;;;;;;16.88;9.90;;;-1.00;99.80;;;;;;5050774;28;20032;-78
2023/01/30 01:56:13;;;;;;;11.55;7.07;;;-1.00;99.80;;;;;;5053537;28;20032;-81
2023/01/30 01:58:50;;;;;;;11.20;7.43;;;-1.10;99.80;;;;;;5050930;28;20504;-80
2023/01/30 02:01:16;;;;;;;12.88;8.93;;;-1.20;99.90;;;;;;5054500;28;20044;-80
2023/01/30 02:03:46;;;;;;;11.77;6.65;;;-1.30;99.90;;;;;;5054394;28;20417;-81
2023/01/30 02:06:14;;;;;;;9.20;7.22;;;-1.30;99.90;;;;;;5054697;28;20021;-81
2023/01/30 02:08:50;;;;;;;10.50;6.57;;;-1.30;99.90;;;;;;5051949;28;20444;-81
2023/01/30 02:11:37;;;;;;;13.05;6.93;;;-1.30;99.90;;;;;;5045016;28;20419;-81
2023/01/30 02:14:04;;;;;;;15.75;9.25;;;-1.30;99.90;;;;;;5054247;28;20029;-80
2023/01/30 02:16:30;;;;;;;16.45;7.85;;;-1.40;99.90;;;;;;5047788;28;20032;-81
2023/01/30 02:18:56;;;;;;;12.85;8.63;;;-1.40;99.90;;;;;;5054229;28;20033;-81
2023/01/30 02:21:22;;;;;;;12.27;8.20;;;-1.40;99.90;;;;;;5054176;28;20483;-81
2023/01/30 02:24:09;;;;;;;15.43;7.53;;;-1.50;99.90;;;;;;5054099;28;20538;-79
2023/01/30 02:26:44;;;;;;;13.93;8.85;;;-1.40;99.90;;;;;;5041332;28;20121;-79
2023/01/30 02:29:32;;;;;;;15.10;10.15;;;-1.40;99.90;;;;;;5053616;28;20071;-79
2023/01/30 02:32:01;;;;;;;13.45;7.85;;;-1.40;99.90;;;;;;5044207;28;20136;-79
2023/01/30 02:34:38;;;;;;;14.10;9.27;;;-1.30;99.90;;;;;;5035879;28;20094;-78
2023/01/30 02:37:29;;;;;;;13.45;9.40;;;-1.30;99.90;;;;;;5036132;28;20013;-79
2023/01/30 02:40:36;;;;;;;13.60;8.45;;;-1.20;99.90;;;;;;5052212;28;20024;-80
2023/01/30 02:43:17;;;;;;;13.75;8.70;;;-1.10;99.90;;;;;;5049847;28;20496;-78
2023/01/30 02:45:59;;;;;;;13.43;7.82;;;-1.10;99.90;;;;;;5053813;28;20032;-78
2023/01/30 02:48:48;;;;;;;15.07;9.13;;;-1.10;99.90;;;;;;5052185;28;20427;-79
2023/01/30 02:51:20;;;;;;;10.38;7.00;;;-1.10;99.90;;;;;;5053851;28;20049;-79
2023/01/30 02:53:47;;;;;;;14.38;8.15;;;-1.10;99.90;;;;;;5044343;28;20372;-79
2023/01/30 02:56:13;;;;;;;11.65;6.82;;;-1.20;99.90;;;;;;5035890;28;20033;-78
2023/01/30 02:58:45;;;;;;;15.18;8.40;;;-1.20;99.90;;;;;;5045754;28;20055;-78
2023/01/30 03:01:31;;;;;;;13.52;8.07;;;-1.20;99.90;;;;;;5048550;28;20055;-79
2023/01/30 03:04:00;;;;;;;15.75;8.70;;;-1.20;99.90;;;;;;5045167;28;20029;-79
2023/01/30 03:06:26;;;;;;;14.63;8.73;;;-1.20;99.90;;;;;;5048232;28;20025;-79
2023/01/30 03:09:05;;;;;;;15.20;9.07;;;-1.10;99.90;;;;;;5051036;28;20033;-78
2023/01/30 03:11:51;;;;;;;14.73;7.90;;;-1.10;99.90;;;;;;5053565;28;20013;-78
2023/01/30 03:14:29;;;;;;;13.20;8.63;;;-1.10;99.90;;;;;;5047082;28;20048;-80
2023/01/30 03:16:57;;;;;;;16.45;8.30;;;-1.10;99.90;;;;;;5048407;28;20025;-79
2023/01/30 03:19:25;;;;;;;13.38;7.30;;;-1.10;99.90;;;;;;5053009;28;20021;-79
2023/01/30 03:21:51;;;;;;;14.55;7.80;;;-1.00;99.90;;;;;;5053168;28;20071;-79
2023/01/30 03:24:17;;;;;;;13.20;7.75;;;-1.00;99.90;;;;;;5050336;28;20048;-79
2023/01/30 03:26:48;;;;;;;15.68;10.07;;;-1.00;99.90;;;;;;5051910;28;20026;-81
2023/01/30 03:29:14;;;;;;;13.70;8.80;;;-1.00;99.90;;;;;;5052713;28;20480;-80
2023/01/30 03:31:40;;;;;;;14.30;8.05;;;-0.90;99.90;;;;;;5034598;28;20494;-80
2023/01/30 03:34:06;;;;;;;13.40;7.35;;;-1.00;99.90;;;;;;5052902;28;20064;-82
2023/01/30 03:36:31;;;;;;;12.05;7.28;;;-0.90;99.90;;;;;;5052961;28;20025;-80
2023/01/30 03:38:58;;;;;;;13.38;6.57;;;-0.90;99.90;;;;;;5054676;28;20086;-80
2023/01/30 03:41:29;;;;;;;13.88;8.45;;;-1.00;99.90;;;;;;5053113;28;20017;-78
2023/01/30 03:43:55;;;;;;;18.98;9.55;;;-0.90;99.90;;;;;;5053172;28;20127;-81
2023/01/30 03:46:21;;;;;;;14.10;8.18;;;-0.90;99.90;;;;;;5035015;28;20500;-80
2023/01/30 03:48:47;;;;;;;11.77;8.55;;;-0.90;99.90;;;;;;5053351;28;20088;-80
2023/01/30 03:51:13;;;;;;;14.25;8.85;;;-0.90;99.90;;;;;;5052991;28;20020;-82
2023/01/30 03:53:38;;;;;;;12.30;7.72;;;-0.90;99.90;;;;;;5052322;28;20033;-81
2023/01/30 03:56:04;;;;;;;10.65;7.18;;;-0.90;99.90;;;;;;5047416;28;20034;-79
2023/01/30 03:58:30;;;;;;;16.65;9.65;;;-0.90;99.90;;;;;;5052433;28;20020;-80
2023/01/30 04:00:56;;;;;;;12.65;8.07;;;-0.80;99.90;;;;;;5051552;28;20053;-81
2023/01/30 04:03:23;;;;;;;13.18;8.43;;;-0.80;99.90;;;;;;5047569;28;20380;-81
2023/01/30 04:05:49;;;;;;;15.33;8.63;;;-0.80;99.80;;;;;;5052410;28;20455;-78
2023/01/30 04:08:15;;;;;;;13.05;8.90;;;-0.70;99.80;;;;;;5046349;28;20262;-82
2023/01/30 04:10:40;;;;;;;13.98;9.05;;;-0.80;99.70;;;;;;5021133;28;20033;-81
2023/01/30 04:13:06;;;;;;;13.65;9.23;;;-0.80;99.70;;;;;;5050499;28;20544;-80
2023/01/30 04:15:32;;;;;;;16.90;8.38;;;-0.80;99.60;;;;;;5034104;28;20468;-80
2023/01/30 04:17:58;;;;;;;12.02;6.50;;;-0.80;99.50;;;;;;5050641;28;20021;-80
2023/01/30 04:20:24;;;;;;;15.52;7.45;;;-0.90;99.50;;;;;;5033553;28;20036;-81
2023/01/30 04:22:50;;;;;;;12.55;8.30;;;-1.00;99.60;;;;;;5051913;28;20027;-81
2023/01/30 04:25:16;;;;;;;14.77;8.95;;;-1.00;99.70;;;;;;5052339;28;20112;-80
2023/01/30 04:27:43;;;;;;;10.63;8.27;;;-0.90;99.90;;;;;;5051839;28;20476;-80
2023/01/30 04:30:09;;;;;;;17.65;8.63;;;-0.90;99.80;;;;;;5052158;28;20503;-81
2023/01/30 04:32:35;;;;;;;13.95;7.57;;;-0.90;99.70;;;;;;5050312;28;20087;-80
2023/01/30 04:35:01;;;;;;;12.40;7.18;;;-0.90;99.60;;;;;;5051922;28;20037;-82
2023/01/30 04:37:27;;;;;;;14.90;8.43;;;-1.00;99.60;;;;;;5051793;28;20063;-82
2023/01/30 04:39:53;;;;;;;15.48;8.48;;;-1.00;99.70;;;;;;5051721;28;20475;-80
2023/01/30 04:42:19;;;;;;;12.88;9.25;;;-1.00;99.70;;;;;;5051846;28;20020;-80
2023/01/30 04:44:44;;;;;;;13.93;9.10;;;-1.00;99.60;;;;;;5051770;28;20061;-80
2023/01/30 04:47:10;;;;;;;15.65;9.10;;;-1.00;99.60;;;;;;5051795;28;20720;-81
2023/01/30 04:49:36;;;;;;;12.48;8.43;;;-0.90;99.70;;;;;;5051510;28;20504;-80
2023/01/30 04:52:03;;;;;;;15.32;8.95;;;-0.90;99.70;;;;;;5051818;28;20017;-81
2023/01/30 04:54:28;;;;;;;14.13;9.18;;;-0.90;99.60;;;;;;5051956;28;20113;-81
2023/01/30 04:56:54;;;;;;;12.73;7.35;;;-0.90;99.30;;;;;;5033887;28;20495;-80
2023/01/30 04:59:20;;;;;;;13.27;8.60;;;-0.90;99.50;;;;;;5051708;28;20029;-81
2023/01/30 05:01:46;;;;;;;14.35;9.20;;;-0.90;99.50;;;;;;5051875;28;20024;-81
2023/01/30 05:04:12;;;;;;;12.90;8.85;;;-0.90;99.50;;;;;;5047146;28;20051;-80
2023/01/30 05:06:38;;;;;;;16.88;7.43;;;-1.00;99.20;;;;;;5034177;28;20426;-77
2023/01/30 05:09:04;;;;;;;12.38;8.43;;;-1.00;99.40;;;;;;5051264;28;20025;-80
2023/01/30 05:11:31;;;;;;;14.50;7.80;;;-1.10;99.40;;;;;;5051433;28;20539;-79
2023/01/30 05:13:57;;;;;;;14.93;7.77;;;-1.10;99.40;;;;;;5033081;28;20492;-81
2023/01/30 05:16:23;;;;;;;13.82;8.07;;;-1.10;99.50;;;;;;5033259;28;20021;-80
2023/01/30 05:18:49;;;;;;;12.23;8.10;;;-1.10;99.40;;;;;;5048002;28;20021;-78
2023/01/30 05:21:21;;;;;;;12.60;7.10;;;-1.10;99.60;;;;;;5033650;28;20033;-79
2023/01/30 05:23:47;;;;;;;12.50;7.30;;;-1.10;99.60;;;;;;5051140;28;20018;-77
2023/01/30 05:26:14;;;;;;;14.20;7.38;;;-1.10;99.50;;;;;;5051237;28;20021;-79
2023/01/30 05:28:41;;;;;;;15.35;7.32;;;-1.20;99.50;;;;;;5051172;28;20071;-78
2023/01/30 05:31:12;;;;;;;11.50;7.50;;;-1.20;99.60;;;;;;5053384;28;20029;-80
2023/01/30 05:33:39;;;;;;;11.32;6.90;;;-1.20;99.70;;;;;;5055007;28;20036;-78
2023/01/30 05:36:06;;;;;;;12.00;7.55;;;-1.20;99.70;;;;;;5050517;28;20477;-79
2023/01/30 05:38:31;;;;;;;13.80;8.48;;;-1.20;99.70;;;;;;5055575;28;20025;-78
2023/01/30 05:41:03;;;;;;;9.65;6.22;;;-1.20;99.80;;;;;;5054942;28;20032;-80
2023/01/30 05:43:31;;;;;;;12.18;7.25;;;-1.20;99.70;;;;;;5054982;28;20028;-79
2023/01/30 05:45:58;;;;;;;12.45;8.20;;;-1.30;99.80;;;;;;5051995;28;20079;-80
2023/01/30 05:48:24;;;;;;;15.75;9.00;;;-1.30;99.90;;;;;;5054502;28;20048;-81
2023/01/30 05:50:54;;;;;;;11.05;7.18;;;-1.30;99.90;;;;;;5054562;28;20548;-78
2023/01/30 05:53:22;;;;;;;16.27;8.88;;;-1.20;99.90;;;;;;5054557;28;20400;-81
2023/01/30 05:55:59;;;;;;;17.92;9.18;;;-1.20;99.90;;;;;;5055108;28;20100;-81
2023/01/30 05:58:26;;;;;;;10.30;6.70;;;-1.20;99.90;;;;;;5033171;28;20147;-82
2023/01/30 06:00:52;;;;;;;15.18;8.90;;;-1.30;99.90;;;;;;5036656;28;20504;-81
2023/01/30 06:03:18;;;;;;;13.90;8.35;;;-1.20;99.90;;;;;;5036528;28;20029;-81
2023/01/30 06:05:44;;;;;;;13.93;8.73;;;-1.20;99.90;;;;;;5054404;28;20048;-80
2023/01/30 06:08:10;;;;;;;11.95;8.25;;;-1.10;99.90;;;;;;5054580;28;20052;-81
2023/01/30 06:10:36;;;;;;;14.85;8.65;;;-1.10;99.90;;;;;;5054502;28;20032;-79
2023/01/30 06:13:02;;;;;;;16.23;7.60;;;-1.10;99.90;;;;;;5054623;28;20025;-81
2023/01/30 06:15:28;;;;;;;14.40;10.05;;;-1.00;99.90;;;;;;5053961;28;20036;-81
2023/01/30 06:17:53;;;;;;;16.92;7.72;;;-1.00;99.80;;;;;;5054478;28;20118;-81
2023/01/30 06:20:19;;;;;;;14.73;8.45;;;-1.00;99.90;;;;;;5054419;28;20025;-81
2023/01/30 06:22:47;;;;;;;14.98;8.63;;;-1.00;99.80;;;;;;5051472;28;20048;-81
2023/01/30 06:25:13;;;;;;;;;;;-1.00;99.90;;;;;;5044051;28;20021;-81
2023/01/30 06:27:39;;;;;;;10.98;7.07;;;-1.00;99.80;;;;;;5054137;28;19912;-82
2023/01/30 06:30:05;;;;;;;16.98;7.95;;;-0.90;99.80;;;;;;5054619;28;20415;-83
2023/01/30 06:32:31;;;;;;;15.20;9.60;;;-1.00;99.80;;;;;;5054057;28;20069;-83
2023/01/30 06:34:56;;;;;;;14.68;9.02;;;-0.90;99.90;;;;;;5054300;28;20041;-82
2023/01/30 06:37:22;;;;;;;13.10;8.20;;;-0.90;99.90;;;;;;5053936;28;20025;-81
2023/01/30 06:39:48;;;;;;;17.98;9.50;;;-0.90;99.80;;;;;;5053826;28;20075;-79
2023/01/30 06:42:14;;;;;;;15.25;8.18;;;-1.00;99.90;;;;;;5052684;28;20099;-79
2023/01/30 06:44:40;;;;;;;16.52;9.48;;;-1.00;99.90;;;;;;5051658;28;20018;-79
2023/01/30 06:47:05;;;;;;;12.45;8.32;;;-1.00;99.90;;;;;;5053861;28;20357;-78
2023/01/30 06:49:31;;;;;;;11.35;7.32;;;-0.90;99.90;;;;;;5049407;28;20100;-80
2023/01/30 06:51:57;;;;;;;15.40;9.00;;;-0.90;99.90;;;;;;5051309;28;20027;-80
2023/01/30 06:54:23;;;;;;;21.30;8.82;;;-1.00;99.90;;;;;;5035528;28;20098;-79
2023/01/30 06:56:49;;;;;;;13.57;8.55;;;-1.00;99.90;;;;;;5035680;28;20599;-80
2023/01/30 06:59:15;;;;;;;14.68;8.85;;;-1.00;99.90;;;;;;5053661;28;20028;-81
2023/01/30 07:01:40;;;;;;;12.68;6.90;;;-1.00;99.90;;;;;;5035326;28;20048;-82
2023/01/30 07:04:06;;;;;;;13.82;8.55;;;-0.90;99.90;;;;;;5035713;28;20121;-81
2023/01/30 07:06:32;;;;;;;12.93;7.95;;;-0.90;99.90;;;;;;5054255;28;20383;-81
2023/01/30 07:08:58;;;;;;;15.95;8.77;;;-0.90;99.90;;;;;;5035426;28;20112;-82
2023/01/30 07:11:27;;;;;;;14.73;9.38;;;-0.80;99.90;;;;;;5035466;28;20103;-81
2023/01/30 07:13:53;;;;;;;12.27;7.80;;;-0.80;99.90;;;;;;5035306;28;20036;-81
2023/01/30 07:16:19;;;;;;;16.67;9.30;;;-0.70;99.90;;;;;;5053136;28;20017;-81
2023/01/30 07:18:45;;;;;;;17.00;9.55;;;-0.60;99.90;;;;;;5053050;28;20025;-81
2023/01/30 07:21:11;;;;;;;14.43;8.05;;;-0.60;99.90;;;;;;5053096;28;20442;-80
2023/01/30 07:23:36;;;;;;;19.52;10.52;;;-0.60;99.90;;;;;;5053172;28;20068;-82
2023/01/30 07:26:04;;;;;;;14.18;8.48;;;-0.60;99.90;;;;;;5034859;28;20029;-81
2023/01/30 07:28:30;;;;;;;11.93;8.85;;;-0.60;99.90;;;;;;5041421;28;20380;-79
2023/01/30 07:31:00;;;;;;;20.35;8.95;;;-0.60;99.90;;;;;;5052928;28;20112;-82
2023/01/30 07:33:26;;;;;;;11.43;7.57;;;-0.50;99.90;;;;;;5052404;28;20025;-77
2023/01/30 07:35:52;;;;;;;12.95;7.80;;;-0.50;99.90;;;;;;5052771;28;20082;-80
2023/01/30 07:38:17;;;;;;;13.52;8.35;;;-0.50;99.90;;;;;;5052589;28;20017;-80
2023/01/30 07:40:44;;;;;;;12.20;7.88;;;-0.50;99.90;;;;;;5052562;28;20426;-79
2023/01/30 07:43:12;;;;;;;11.35;6.70;;;-0.60;99.80;;;;;;5052651;28;20021;-80
2023/01/30 07:45:43;;;;;;;14.40;8.07;;;-0.70;99.90;;;;;;5034194;28;20032;-82
2023/01/30 07:48:11;;;;;;;15.73;7.15;;;-0.70;99.90;;;;;;5034756;28;20495;-81
2023/01/30 07:50:37;;;;;;;10.95;6.18;;;-0.70;99.90;;;;;;5045641;28;20017;-80
2023/01/30 07:53:04;;;;;;;11.43;8.23;;;-0.80;99.90;;;;;;5052255;28;20534;-81
2023/01/30 07:55:30;;;;;;;14.82;7.70;;;-0.80;99.90;;;;;;5052828;28;20053;-81
2023/01/30 07:57:56;;;;;;;10.82;7.47;;;-0.80;99.90;;;;;;5052584;28;20110;-81
2023/01/30 08:00:22;;;;;;;10.70;7.72;;;-0.80;99.90;;;;;;5035862;28;20482;-82
2023/01/30 08:02:48;;;;;;;15.93;8.93;;;-0.80;99.90;;;;;;5052545;28;20033;-81
2023/01/30 08:05:14;;;;;;;10.65;6.15;;;-0.80;99.90;;;;;;5052858;28;20033;-81
2023/01/30 08:07:40;;;;;;;19.88;11.95;;;-0.70;99.90;;;;;;5053027;28;20017;-82
2023/01/30 08:10:07;;;;;;;11.05;6.63;;;-0.70;99.90;;;;;;5053300;28;20140;-83
2023/01/30 08:12:32;;;;;;;12.90;6.72;;;-0.70;99.90;;;;;;5052729;28;20099;-83
2023/01/30 08:14:59;;;;;;;12.00;6.85;;;-0.70;99.90;;;;;;5026637;28;20547;-83
2023/01/30 08:17:24;;;;;;;16.38;9.88;;;-0.80;99.90;;;;;;5044576;28;20035;-82
2023/01/30 08:19:50;;;;;;;14.70;8.10;;;-0.70;99.90;;;;;;5053831;28;20104;-82
2023/01/30 08:22:16;;;;;;;10.60;7.13;;;-0.70;99.90;;;;;;5052786;28;20055;-82
2023/01/30 08:24:42;;;;;;;14.95;8.48;;;-0.70;99.90;;;;;;5052630;28;20021;-81
2023/01/30 08:27:08;;;;;;;8.65;5.10;;;-0.90;99.90;;;;;;5049326;28;20025;-82
2023/01/30 08:29:34;;;;;;;14.95;7.30;;;-0.90;99.90;;;;;;5033808;28;20029;-81
2023/01/30 08:32:00;;;;;;;12.70;7.88;;;-0.90;99.90;;;;;;5052116;28;20116;-80
2023/01/30 08:34:26;;;;;;;12.10;6.63;;;-0.80;99.90;;;;;;5051779;28;20119;-79
2023/01/30 08:36:52;;;;;;;12.20;7.95;;;-0.80;99.90;;;;;;5051995;28;20127;-80
2023/01/30 08:39:18;;;;;;;19.00;7.90;;;-0.80;99.90;;;;;;5052007;28;20504;-81
2023/01/30 08:41:44;;;;;;;14.10;7.13;;;-0.80;99.90;;;;;;5051521;28;20075;-80
2023/01/30 08:44:11;;;;;;;15.38;7.72;;;-0.80;99.90;;;;;;5052219;28;20534;-81
2023/01/30 08:46:38;;;;;;;13.60;7.63;;;-0.80;99.90;;;;;;5051826;28;20021;-79
2023/01/30 08:49:04;;;;;;;13.17;7.43;;;-0.70;99.90;;;;;;5051747;28;20028;-81
2023/01/30 08:51:30;;;;;;;11.97;8.27;;;-0.80;99.90;;;;;;5051357;28;20025;-81
2023/01/30 08:53:56;;;;;;;12.40;8.55;;;-0.80;99.90;;;;;;5051092;28;20293;-80
2023/01/30 08:56:22;;;;;;;10.10;7.15;;;-0.80;99.90;;;;;;5051189;28;20017;-80
2023/01/30 08:58:48;;;;;;;9.57;5.72;;;-0.70;99.90;;;;;;5032082;28;20025;-88
2023/01/30 09:01:14;;;;;;;7.82;5.88;;;-0.70;99.90;;;;;;5045735;28;20045;-82
2023/01/30 09:03:40;;;;;;;13.07;7.80;;;-0.80;99.90;;;;;;5051863;28;20025;-81
2023/01/30 09:06:07;;;;;;;7.60;4.95;;;-0.80;99.90;;;;;;5033344;28;20029;-80
2023/01/30 09:08:33;;;;;;;13.43;7.20;;;-0.80;99.90;;;;;;5051283;28;20044;-81
2023/01/30 09:11:03;;;;;;;10.52;6.03;;;-0.70;99.90;;;;;;5051368;28;20064;-81
2023/01/30 09:13:31;;;;;;;10.05;5.97;;;-0.70;99.90;;;;;;5051371;28;20113;-80
2023/01/30 09:15:57;;;;;;;12.07;7.28;;;-0.70;99.90;;;;;;5051367;28;20017;-80
2023/01/30 09:18:24;;;;;;;15.52;8.52;;;-0.70;99.90;;;;;;5048696;28;20021;-79
2023/01/30 09:20:50;;;;;;;14.57;7.70;;;-0.60;99.90;;;;;;5050477;28;20028;-79
2023/01/30 09:23:16;;;;;;;12.02;6.68;;;-0.60;99.90;;;;;;5026720;28;20033;-81
2023/01/30 09:25:45;;;;;;;14.82;8.48;;;-0.50;99.90;;;;;;5026678;28;20384;-77
2023/01/30 09:28:12;;;;;;;13.35;8.10;;;-0.50;99.90;;;;;;5051938;28;20025;-81
2023/01/30 09:30:37;;;;;;;16.13;9.02;;;-0.50;99.90;;;;;;5035841;28;20014;-80
2023/01/30 09:33:03;;;;;;;16.23;9.50;;;-0.50;99.90;;;;;;5032104;28;20024;-81
2023/01/30 09:35:29;;;;;;;14.40;6.78;;;-0.50;99.90;;;;;;5042096;28;20033;-82
2023/01/30 09:37:55;;;;;;;15.50;7.88;;;-0.40;99.90;;;;;;5053413;28;20086;-81
2023/01/30 09:40:28;;;;;;;12.38;7.55;;;-0.50;99.90;;;;;;5035032;28;20114;-81
2023/01/30 09:43:16;;;;;;;7.53;5.05;;;-0.40;99.90;;;;;;5052681;28;20024;-78
2023/01/30 09:45:44;;;;;;;11.93;7.30;;;-0.40;99.90;;;;;;5044305;28;20333;-80
2023/01/30 09:48:42;;;;;;;13.10;6.85;;;-0.50;99.90;;;;;;5062681;28;20546;-79
2023/01/30 09:51:20;;;;;;;12.85;7.68;;;-0.50;99.90;;;;;;5064362;28;20084;-77
2023/01/30 09:53:51;;;;;;;11.57;6.20;;;-0.50;99.90;;;;;;5056014;28;20044;-79
2023/01/30 09:56:17;;;;;;;10.63;6.53;;;-0.50;99.90;;;;;;5068827;28;20059;-81
2023/01/30 09:59:14;;;;;;;9.43;6.20;;;-0.50;99.90;;;;;;5068240;28;20029;-86
2023/01/30 10:01:59;;;;;;;13.82;7.00;;;-0.40;99.90;;;;;;5053737;28;20067;-80
2023/01/30 10:04:44;;;;;;;14.32;6.57;;;-0.40;99.90;;;;;;5052788;28;20024;-80
2023/01/30 10:07:22;;;;;;;17.40;9.00;;;-0.40;99.90;;;;;;5051878;28;20028;-81
2023/01/30 10:09:58;;;;;;;8.98;6.43;;;-0.40;99.90;;;;;;5043585;28;20357;-79
2023/01/30 10:12:50;;;;;;;9.47;6.13;;;-0.40;99.90;;;;;;5050832;28;20480;-80
2023/01/30 10:15:25;;;;;;;12.30;6.75;;;-0.50;99.90;;;;;;5050814;28;20270;-79
2023/01/30 10:18:05;;;;;;;16.50;8.82;;;-0.50;99.90;;;;;;5054500;28;20386;-79
2023/01/30 10:20:48;;;;;;;8.52;5.43;;;-0.40;99.90;;;;;;5054738;28;20102;-79
2023/01/30 10:23:43;;;;;;;10.88;6.38;;;-0.40;99.90;;;;;;5054555;28;20029;-79
2023/01/30 10:26:11;;;;;;;12.52;7.35;;;-0.30;99.90;;;;;;5054240;28;20043;-79
2023/01/30 10:28:42;;;;;;;16.85;7.18;;;-0.20;99.90;;;;;;5054126;28;20025;-80
2023/01/30 10:31:14;;;;;;;11.70;7.05;;;-0.20;99.90;;;;;;5050014;28;20025;-79
2023/01/30 10:34:14;;;;;;;11.73;7.40;;;-0.20;99.90;;;;;;5054064;28;20029;-78
2023/01/30 10:36:52;;;;;;;13.82;8.40;;;-0.20;99.90;;;;;;5040178;28;20032;-80
2023/01/30 10:39:42;;;;;;;12.75;8.75;;;-0.20;99.90;;;;;;5053948;28;20025;-81
2023/01/30 10:42:11;;;;;;;18.58;8.80;;;0.00;99.90;;;;;;5045371;28;20032;-79
2023/01/30 10:44:42;;;;;;;12.25;7.43;;;0.00;99.90;;;;;;5051749;28;20029;-81
2023/01/30 10:47:14;;;;;;;14.15;7.68;;;0.00;99.90;;;;;;5051247;28;20365;-79
2023/01/30 10:49:52;;;;;;;16.45;8.68;;;0.00;99.90;;;;;;5053430;28;20434;-80
2023/01/30 10:52:45;;;;;;;14.35;7.03;;;0.00;99.90;;;;;;5042203;28;20446;-81
2023/01/30 10:55:28;;;;;;;9.65;6.65;;;0.10;99.90;;;;;;5053297;28;20041;-78
2023/01/30 10:58:12;;;;;;;16.08;8.55;;;0.10;99.90;;;;;;5053672;28;20483;-78
2023/01/30 11:00:49;;;;;;;12.40;9.25;;;-0.10;99.80;;;;;;5049088;28;20111;-79
2023/01/30 11:03:29;;;;;;;16.13;8.60;;;-0.10;99.90;;;;;;5035539;28;20484;-82
2023/01/30 11:06:12;;;;;;;11.90;7.65;;;0.00;99.90;;;;;;5050985;28;20101;-81
2023/01/30 11:08:38;;;;;;;18.73;7.35;;;0.00;99.90;;;;;;5055446;28;20021;-85
2023/01/30 11:11:27;;;;;;;11.57;7.82;;;0.00;99.80;;;;;;5044992;28;20031;-87
2023/01/30 11:14:10;;;;;;;15.60;6.78;;;0.00;99.90;;;;;;5040660;28;20514;-87
2023/01/30 11:16:54;;;;;;;15.23;8.15;;;0.10;99.90;;;;;;5048083;28;20097;-78
2023/01/30 11:19:45;;;;;;;13.98;9.82;;;0.00;99.70;;;;;;5050918;28;20658;-79
2023/01/30 11:22:14;;;;;;;15.13;8.85;;;0.00;99.90;;;;;;5050919;28;20531;-79
2023/01/30 11:24:44;;;;;;;15.07;8.35;;;0.10;99.80;;;;;;5035824;28;20384;-79
2023/01/30 11:27:25;;;;;;;14.20;7.22;;;0.00;99.80;;;;;;5052945;28;20064;-80
2023/01/30 11:30:22;;;;;;;12.27;8.13;;;0.00;99.90;;;;;;5050791;28;20078;-82
2023/01/30 11:32:50;;;;;;;8.68;5.95;;;0.10;99.90;;;;;;5054132;28;20040;-80
2023/01/30 11:35:21;;;;;;;14.45;6.70;;;0.10;99.90;;;;;;5054545;28;20044;-81
2023/01/30 11:37:47;;;;;;;15.88;10.82;;;0.00;99.90;;;;;;5053162;28;20029;-82
2023/01/30 11:40:24;;;;;;;17.42;10.73;;;0.00;99.90;;;;;;5053135;28;20081;-82
2023/01/30 11:42:51;;;;;;;;;;;0.00;99.90;;;;;;5035451;28;20025;-82
2023/01/30 11:45:19;;;;;;;15.13;8.80;;;0.00;99.90;;;;;;5050025;28;19915;-84
2023/01/30 11:48:12;;;;;;;13.30;7.90;;;-0.10;99.90;;;;;;5049763;28;20472;-83
2023/01/30 11:50:41;;;;;;;11.77;8.30;;;-0.10;99.90;;;;;;5044812;28;20375;-82
2023/01/30 11:53:28;;;;;;;10.68;6.97;;;-0.10;99.90;;;;;;5052212;28;20415;-83
2023/01/30 11:55:58;;;;;;;12.48;6.50;;;-0.10;99.90;;;;;;5052663;28;20383;-81
2023/01/30 11:58:29;;;;;;;16.98;7.78;;;0.00;99.90;;;;;;5030581;28;20033;-81
2023/01/30 12:00:56;;;;;;;14.65;8.65;;;-0.10;99.90;;;;;;5052266;28;20073;-82
2023/01/30 12:03:24;;;;;;;15.18;9.23;;;-0.20;99.90;;;;;;5047571;28;20026;-79
2023/01/30 12:05:50;;;;;;;20.15;11.38;;;-0.20;99.90;;;;;;5052297;28;20043;-78
2023/01/30 12:08:19;;;;;;;20.95;12.80;;;-0.30;99.90;;;;;;5052665;28;20530;-82
2023/01/30 12:10:49;;;;;;;17.92;10.30;;;-0.30;99.90;;;;;;5052452;28;20021;-77
2023/01/30 12:13:27;;;;;;;14.48;8.55;;;-0.30;99.90;;;;;;5051963;28;20032;-77
2023/01/30 12:16:04;;;;;;;11.38;7.07;;;-0.30;99.90;;;;;;5043167;28;20032;-79
2023/01/30 12:19:02;;;;;;;9.32;7.10;;;-0.30;99.90;;;;;;5033991;28;20480;-78
2023/01/30 12:21:36;;;;;;;15.07;7.65;;;-0.30;99.90;;;;;;5046465;28;20041;-79
2023/01/30 12:24:34;;;;;;;15.77;8.95;;;-0.30;99.90;;;;;;5046969;28;20028;-79
2023/01/30 12:27:25;;;;;;;13.25;7.65;;;-0.30;99.90;;;;;;5033715;28;20850;-78
2023/01/30 12:30:09;;;;;;;12.75;8.25;;;-0.20;99.90;;;;;;5051781;28;20021;-80
2023/01/30 12:32:35;;;;;;;10.82;6.63;;;-0.30;99.90;;;;;;5051592;28;20023;-81
2023/01/30 12:35:13;;;;;;;12.23;6.43;;;-0.30;99.90;;;;;;5051664;28;20041;-81
2023/01/30 12:38:07;;;;;;;12.20;7.63;;;-0.30;99.90;;;;;;5050386;28;20120;-80
2023/01/30 12:40:39;;;;;;;10.35;7.18;;;-0.20;99.90;;;;;;5047967;28;20480;-80
2023/01/30 12:43:29;;;;;;;13.20;7.00;;;-0.20;99.90;;;;;;5033957;28;20760;-78
2023/01/30 12:46:16;;;;;;;11.93;7.07;;;-0.10;99.90;;;;;;5051180;28;20033;-80
2023/01/30 12:48:54;;;;;;;10.65;6.63;;;-0.20;99.90;;;;;;5050935;28;20032;-81
2023/01/30 12:51:26;;;;;;;11.75;7.15;;;-0.20;99.90;;;;;;5033459;28;20033;-79
2023/01/30 12:54:15;;;;;;;9.60;6.00;;;-0.30;99.90;;;;;;5050821;28;20037;-79
2023/01/30 12:56:55;;;;;;;13.07;7.22;;;-0.30;99.90;;;;;;5036307;28;20064;-79
2023/01/30 13:00:02;;;;;;;11.00;6.20;;;-0.20;99.90;;;;;;5051229;28;20025;-79
2023/01/30 13:02:31;;;;;;;11.07;7.57;;;-0.20;99.90;;;;;;5050832;28;20113;-80
2023/01/30 13:05:06;;;;;;;8.73;6.05;;;-0.30;99.90;;;;;;5033385;28;20029;-83